Terminal Aerodrome Forecast
Issued by NWS Jackson, MS

Home | Current Version | Previous Version | Text Only | Print | Product List | Glossary On
Versions: 1 2 3 4 5 6 7 8 9 10 11 12 13 14 15
000
FTUS44 KJAN 180548
TAFGLH
TAF
KGLH 180548Z 1806/1906 05008KT P6SM SCT040 SCT080
     FM181500 10009KT P6SM VCSH SCT010 BKN025
     FM181900 08006KT 6SM -RA VCTS SCT020 OVC050CB
     FM190200 14008KT P6SM -RA SCT006 SCT050 BKN120=

USA.gov is the U.S. government's official web portal to all federal, state and local government web resources and services.